sensor_id;sensor_type;location;lat;lon;timestamp;P1;durP1;ratioP1;P2;durP2;ratioP2
75628;SDS011;64213;46.452;16.994;2023-02-13T00:00:48;26.30;;;10.48;;
75628;SDS011;64213;46.452;16.994;2023-02-13T00:03:50;33.10;;;14.40;;
75628;SDS011;64213;46.452;16.994;2023-02-13T00:06:53;38.95;;;15.25;;
75628;SDS011;64213;46.452;16.994;2023-02-13T00:09:55;35.13;;;12.33;;
75628;SDS011;64213;46.452;16.994;2023-02-13T00:12:57;32.53;;;11.43;;
75628;SDS011;64213;46.452;16.994;2023-02-13T00:16:00;31.80;;;12.37;;
75628;SDS011;64213;46.452;16.994;2023-02-13T00:19:05;32.25;;;13.13;;
75628;SDS011;64213;46.452;16.994;2023-02-13T00:22:07;29.63;;;12.30;;
75628;SDS011;64213;46.452;16.994;2023-02-13T00:25:10;30.47;;;12.53;;
75628;SDS011;64213;46.452;16.994;2023-02-13T00:28:13;34.30;;;13.23;;
75628;SDS011;64213;46.452;16.994;2023-02-13T00:31:17;35.83;;;13.77;;
75628;SDS011;64213;46.452;16.994;2023-02-13T00:34:21;36.85;;;13.55;;
75628;SDS011;64213;46.452;16.994;2023-02-13T00:37:24;36.55;;;14.73;;
75628;SDS011;64213;46.452;16.994;2023-02-13T00:40:27;36.63;;;13.67;;
75628;SDS011;64213;46.452;16.994;2023-02-13T00:43:29;36.70;;;13.07;;
75628;SDS011;64213;46.452;16.994;2023-02-13T00:46:32;33.58;;;13.00;;
75628;SDS011;64213;46.452;16.994;2023-02-13T00:49:35;35.90;;;12.82;;
75628;SDS011;64213;46.452;16.994;2023-02-13T00:52:37;26.12;;;11.12;;
75628;SDS011;64213;46.452;16.994;2023-02-13T00:55:40;27.40;;;10.97;;
75628;SDS011;64213;46.452;16.994;2023-02-13T00:58:43;25.03;;;9.37;;
75628;SDS011;64213;46.452;16.994;2023-02-13T01:01:46;25.75;;;10.02;;
75628;SDS011;64213;46.452;16.994;2023-02-13T01:04:49;26.58;;;10.80;;
75628;SDS011;64213;46.452;16.994;2023-02-13T01:07:51;23.17;;;9.88;;
75628;SDS011;64213;46.452;16.994;2023-02-13T01:10:54;23.73;;;8.83;;
75628;SDS011;64213;46.452;16.994;2023-02-13T01:13:57;24.20;;;8.77;;
75628;SDS011;64213;46.452;16.994;2023-02-13T01:17:00;23.90;;;9.38;;
75628;SDS011;64213;46.452;16.994;2023-02-13T01:20:02;22.58;;;8.35;;
75628;SDS011;64213;46.452;16.994;2023-02-13T01:23:05;25.35;;;8.48;;
75628;SDS011;64213;46.452;16.994;2023-02-13T01:26:09;22.37;;;8.90;;
75628;SDS011;64213;46.452;16.994;2023-02-13T01:29:18;26.67;;;9.67;;
75628;SDS011;64213;46.452;16.994;2023-02-13T01:32:20;27.30;;;9.82;;
75628;SDS011;64213;46.452;16.994;2023-02-13T01:35:22;24.87;;;8.93;;
75628;SDS011;64213;46.452;16.994;2023-02-13T01:38:25;21.90;;;8.02;;
75628;SDS011;64213;46.452;16.994;2023-02-13T01:41:27;23.37;;;9.10;;
75628;SDS011;64213;46.452;16.994;2023-02-13T01:48:01;23.73;;;9.18;;
75628;SDS011;64213;46.452;16.994;2023-02-13T01:51:10;24.12;;;9.52;;
75628;SDS011;64213;46.452;16.994;2023-02-13T01:54:16;25.48;;;8.98;;
75628;SDS011;64213;46.452;16.994;2023-02-13T01:57:23;24.27;;;9.17;;
75628;SDS011;64213;46.452;16.994;2023-02-13T02:00:29;29.80;;;9.13;;
75628;SDS011;64213;46.452;16.994;2023-02-13T02:03:37;76.68;;;23.17;;
75628;SDS011;64213;46.452;16.994;2023-02-13T02:06:55;26.77;;;9.88;;
75628;SDS011;64213;46.452;16.994;2023-02-13T02:10:08;25.83;;;10.07;;
75628;SDS011;64213;46.452;16.994;2023-02-13T02:13:17;23.57;;;9.27;;
75628;SDS011;64213;46.452;16.994;2023-02-13T02:16:21;27.03;;;10.07;;
75628;SDS011;64213;46.452;16.994;2023-02-13T02:19:28;28.83;;;11.52;;
75628;SDS011;64213;46.452;16.994;2023-02-13T02:36:32;23.25;;;9.00;;
75628;SDS011;64213;46.452;16.994;2023-02-13T02:47:00;25.00;;;10.93;;
75628;SDS011;64213;46.452;16.994;2023-02-13T02:56:55;24.27;;;9.38;;
75628;SDS011;64213;46.452;16.994;2023-02-13T03:00:04;22.85;;;9.55;;
75628;SDS011;64213;46.452;16.994;2023-02-13T03:03:27;30.70;;;9.60;;
75628;SDS011;64213;46.452;16.994;2023-02-13T03:06:53;25.73;;;9.17;;
75628;SDS011;64213;46.452;16.994;2023-02-13T03:10:02;25.62;;;9.93;;
75628;SDS011;64213;46.452;16.994;2023-02-13T03:13:40;23.30;;;9.88;;
75628;SDS011;64213;46.452;16.994;2023-02-13T03:16:47;24.87;;;10.13;;
75628;SDS011;64213;46.452;16.994;2023-02-13T03:24:35;25.00;;;10.20;;
75628;SDS011;64213;46.452;16.994;2023-02-13T03:34:24;25.10;;;9.02;;
75628;SDS011;64213;46.452;16.994;2023-02-13T03:37:49;26.60;;;8.60;;
75628;SDS011;64213;46.452;16.994;2023-02-13T03:41:06;26.83;;;8.95;;
75628;SDS011;64213;46.452;16.994;2023-02-13T03:47:30;22.40;;;9.30;;
75628;SDS011;64213;46.452;16.994;2023-02-13T03:50:33;26.55;;;8.77;;
75628;SDS011;64213;46.452;16.994;2023-02-13T03:53:40;20.43;;;8.63;;
75628;SDS011;64213;46.452;16.994;2023-02-13T03:56:45;20.92;;;8.90;;
75628;SDS011;64213;46.452;16.994;2023-02-13T04:00:10;24.80;;;10.18;;
75628;SDS011;64213;46.452;16.994;2023-02-13T04:03:30;29.63;;;11.05;;
75628;SDS011;64213;46.452;16.994;2023-02-13T04:09:57;26.60;;;9.57;;
75628;SDS011;64213;46.452;16.994;2023-02-13T04:13:07;25.02;;;10.10;;
75628;SDS011;64213;46.452;16.994;2023-02-13T04:16:20;24.67;;;10.32;;
75628;SDS011;64213;46.452;16.994;2023-02-13T04:19:29;23.15;;;8.98;;
75628;SDS011;64213;46.452;16.994;2023-02-13T04:22:33;25.40;;;9.85;;
75628;SDS011;64213;46.452;16.994;2023-02-13T04:25:36;27.57;;;10.83;;
75628;SDS011;64213;46.452;16.994;2023-02-13T04:28:41;26.10;;;10.00;;
75628;SDS011;64213;46.452;16.994;2023-02-13T04:31:43;19.65;;;10.02;;
75628;SDS011;64213;46.452;16.994;2023-02-13T04:34:46;28.00;;;11.12;;
75628;SDS011;64213;46.452;16.994;2023-02-13T04:37:48;27.13;;;10.93;;
75628;SDS011;64213;46.452;16.994;2023-02-13T04:40:51;27.77;;;11.50;;
75628;SDS011;64213;46.452;16.994;2023-02-13T04:43:53;29.85;;;10.85;;
75628;SDS011;64213;46.452;16.994;2023-02-13T04:46:55;27.45;;;10.40;;
75628;SDS011;64213;46.452;16.994;2023-02-13T04:49:58;22.58;;;9.35;;
75628;SDS011;64213;46.452;16.994;2023-02-13T04:53:00;22.10;;;9.00;;
75628;SDS011;64213;46.452;16.994;2023-02-13T04:56:03;29.77;;;9.97;;
75628;SDS011;64213;46.452;16.994;2023-02-13T04:59:05;26.23;;;10.52;;
75628;SDS011;64213;46.452;16.994;2023-02-13T05:02:08;25.90;;;9.68;;
75628;SDS011;64213;46.452;16.994;2023-02-13T05:05:10;24.42;;;10.18;;
75628;SDS011;64213;46.452;16.994;2023-02-13T05:08:13;25.05;;;9.85;;
75628;SDS011;64213;46.452;16.994;2023-02-13T05:11:15;25.10;;;9.97;;
75628;SDS011;64213;46.452;16.994;2023-02-13T05:14:17;29.37;;;10.23;;
75628;SDS011;64213;46.452;16.994;2023-02-13T05:17:20;23.02;;;9.82;;
75628;SDS011;64213;46.452;16.994;2023-02-13T05:20:22;29.37;;;10.68;;
75628;SDS011;64213;46.452;16.994;2023-02-13T05:23:24;30.10;;;11.05;;
75628;SDS011;64213;46.452;16.994;2023-02-13T05:26:27;39.07;;;12.37;;
75628;SDS011;64213;46.452;16.994;2023-02-13T05:29:29;22.00;;;8.15;;
75628;SDS011;64213;46.452;16.994;2023-02-13T05:32:32;32.67;;;11.63;;
75628;SDS011;64213;46.452;16.994;2023-02-13T05:35:34;25.45;;;10.57;;
75628;SDS011;64213;46.452;16.994;2023-02-13T05:38:37;25.27;;;10.15;;
75628;SDS011;64213;46.452;16.994;2023-02-13T05:41:42;26.87;;;10.27;;
75628;SDS011;64213;46.452;16.994;2023-02-13T05:44:45;24.12;;;8.60;;
75628;SDS011;64213;46.452;16.994;2023-02-13T05:47:48;24.37;;;9.70;;
75628;SDS011;64213;46.452;16.994;2023-02-13T05:50:50;21.95;;;9.02;;
75628;SDS011;64213;46.452;16.994;2023-02-13T05:53:52;24.70;;;8.82;;
75628;SDS011;64213;46.452;16.994;2023-02-13T05:56:55;25.33;;;10.20;;
75628;SDS011;64213;46.452;16.994;2023-02-13T05:59:58;26.98;;;10.88;;
75628;SDS011;64213;46.452;16.994;2023-02-13T06:03:00;27.65;;;11.12;;
75628;SDS011;64213;46.452;16.994;2023-02-13T06:06:02;32.05;;;12.20;;
75628;SDS011;64213;46.452;16.994;2023-02-13T06:09:05;24.27;;;10.07;;
75628;SDS011;64213;46.452;16.994;2023-02-13T06:12:07;27.87;;;11.23;;
75628;SDS011;64213;46.452;16.994;2023-02-13T06:15:09;28.42;;;11.77;;
75628;SDS011;64213;46.452;16.994;2023-02-13T06:18:12;27.95;;;11.27;;
75628;SDS011;64213;46.452;16.994;2023-02-13T06:21:14;27.52;;;10.93;;
75628;SDS011;64213;46.452;16.994;2023-02-13T06:24:17;34.63;;;11.68;;
75628;SDS011;64213;46.452;16.994;2023-02-13T06:27:19;31.47;;;12.00;;
75628;SDS011;64213;46.452;16.994;2023-02-13T06:30:22;28.35;;;10.52;;
75628;SDS011;64213;46.452;16.994;2023-02-13T06:33:24;22.85;;;10.52;;
75628;SDS011;64213;46.452;16.994;2023-02-13T06:36:26;33.78;;;14.93;;
75628;SDS011;64213;46.452;16.994;2023-02-13T06:39:29;27.17;;;10.10;;
75628;SDS011;64213;46.452;16.994;2023-02-13T06:42:31;27.10;;;11.67;;
75628;SDS011;64213;46.452;16.994;2023-02-13T06:45:34;35.05;;;12.88;;
75628;SDS011;64213;46.452;16.994;2023-02-13T06:48:37;46.50;;;17.20;;
75628;SDS011;64213;46.452;16.994;2023-02-13T06:51:40;64.07;;;23.67;;
75628;SDS011;64213;46.452;16.994;2023-02-13T06:54:42;81.65;;;29.05;;
75628;SDS011;64213;46.452;16.994;2023-02-13T06:57:48;82.20;;;27.70;;
75628;SDS011;64213;46.452;16.994;2023-02-13T07:00:51;75.95;;;26.58;;
75628;SDS011;64213;46.452;16.994;2023-02-13T07:03:54;60.50;;;23.15;;
75628;SDS011;64213;46.452;16.994;2023-02-13T07:06:56;64.15;;;28.55;;
75628;SDS011;64213;46.452;16.994;2023-02-13T07:09:59;53.50;;;22.83;;
75628;SDS011;64213;46.452;16.994;2023-02-13T07:13:02;55.80;;;24.53;;
75628;SDS011;64213;46.452;16.994;2023-02-13T07:16:06;45.50;;;18.45;;
75628;SDS011;64213;46.452;16.994;2023-02-13T07:19:09;32.35;;;13.23;;
75628;SDS011;64213;46.452;16.994;2023-02-13T07:22:11;39.67;;;16.17;;
75628;SDS011;64213;46.452;16.994;2023-02-13T07:25:14;33.33;;;14.35;;
75628;SDS011;64213;46.452;16.994;2023-02-13T07:28:16;32.50;;;15.30;;
75628;SDS011;64213;46.452;16.994;2023-02-13T07:31:19;29.80;;;13.53;;
75628;SDS011;64213;46.452;16.994;2023-02-13T07:34:21;28.00;;;12.80;;
75628;SDS011;64213;46.452;16.994;2023-02-13T07:37:25;31.33;;;12.60;;
75628;SDS011;64213;46.452;16.994;2023-02-13T07:40:29;30.40;;;14.13;;
75628;SDS011;64213;46.452;16.994;2023-02-13T07:43:32;35.90;;;16.30;;
75628;SDS011;64213;46.452;16.994;2023-02-13T07:46:34;45.80;;;18.13;;
75628;SDS011;64213;46.452;16.994;2023-02-13T07:49:37;29.45;;;12.52;;
75628;SDS011;64213;46.452;16.994;2023-02-13T07:52:39;31.23;;;12.57;;
75628;SDS011;64213;46.452;16.994;2023-02-13T07:55:42;33.65;;;14.43;;
75628;SDS011;64213;46.452;16.994;2023-02-13T07:58:44;26.83;;;12.63;;
75628;SDS011;64213;46.452;16.994;2023-02-13T08:01:47;31.17;;;13.43;;
75628;SDS011;64213;46.452;16.994;2023-02-13T08:04:49;23.58;;;11.82;;
75628;SDS011;64213;46.452;16.994;2023-02-13T08:07:52;26.33;;;11.65;;
75628;SDS011;64213;46.452;16.994;2023-02-13T08:10:54;24.90;;;10.55;;
75628;SDS011;64213;46.452;16.994;2023-02-13T08:14:16;28.23;;;12.40;;
75628;SDS011;64213;46.452;16.994;2023-02-13T08:17:18;22.93;;;10.10;;
75628;SDS011;64213;46.452;16.994;2023-02-13T08:20:21;20.27;;;10.00;;
75628;SDS011;64213;46.452;16.994;2023-02-13T08:23:24;23.92;;;10.98;;
75628;SDS011;64213;46.452;16.994;2023-02-13T08:26:29;28.00;;;12.85;;
75628;SDS011;64213;46.452;16.994;2023-02-13T08:29:32;27.70;;;12.80;;
75628;SDS011;64213;46.452;16.994;2023-02-13T08:32:35;23.57;;;11.47;;
75628;SDS011;64213;46.452;16.994;2023-02-13T08:35:54;25.12;;;12.25;;
75628;SDS011;64213;46.452;16.994;2023-02-13T08:38:58;25.98;;;12.45;;
75628;SDS011;64213;46.452;16.994;2023-02-13T08:42:00;22.08;;;11.05;;
75628;SDS011;64213;46.452;16.994;2023-02-13T08:45:03;24.37;;;11.67;;
75628;SDS011;64213;46.452;16.994;2023-02-13T08:48:06;25.77;;;10.10;;
75628;SDS011;64213;46.452;16.994;2023-02-13T08:51:09;20.30;;;8.82;;
75628;SDS011;64213;46.452;16.994;2023-02-13T08:54:14;18.52;;;8.10;;
75628;SDS011;64213;46.452;16.994;2023-02-13T08:57:16;21.52;;;9.00;;
75628;SDS011;64213;46.452;16.994;2023-02-13T09:00:19;21.40;;;9.47;;
75628;SDS011;64213;46.452;16.994;2023-02-13T09:03:22;22.13;;;9.43;;
75628;SDS011;64213;46.452;16.994;2023-02-13T09:06:25;21.92;;;9.80;;
75628;SDS011;64213;46.452;16.994;2023-02-13T09:09:28;21.87;;;9.55;;
75628;SDS011;64213;46.452;16.994;2023-02-13T09:12:31;21.27;;;9.18;;
75628;SDS011;64213;46.452;16.994;2023-02-13T09:15:33;18.43;;;8.43;;
75628;SDS011;64213;46.452;16.994;2023-02-13T09:18:38;20.00;;;8.50;;
75628;SDS011;64213;46.452;16.994;2023-02-13T09:21:41;20.60;;;9.10;;
75628;SDS011;64213;46.452;16.994;2023-02-13T09:24:43;19.77;;;8.60;;
75628;SDS011;64213;46.452;16.994;2023-02-13T09:27:45;17.73;;;8.40;;
75628;SDS011;64213;46.452;16.994;2023-02-13T09:30:48;18.33;;;7.97;;
75628;SDS011;64213;46.452;16.994;2023-02-13T09:33:51;17.60;;;7.70;;
75628;SDS011;64213;46.452;16.994;2023-02-13T09:36:53;18.02;;;9.30;;
75628;SDS011;64213;46.452;16.994;2023-02-13T09:39:56;18.85;;;8.63;;
75628;SDS011;64213;46.452;16.994;2023-02-13T09:43:34;20.37;;;9.38;;
75628;SDS011;64213;46.452;16.994;2023-02-13T09:46:36;20.43;;;9.30;;
75628;SDS011;64213;46.452;16.994;2023-02-13T09:49:42;19.67;;;8.10;;
75628;SDS011;64213;46.452;16.994;2023-02-13T09:52:48;14.82;;;6.22;;
75628;SDS011;64213;46.452;16.994;2023-02-13T10:09:47;10.93;;;4.18;;
75628;SDS011;64213;46.452;16.994;2023-02-13T10:16:57;10.93;;;4.20;;
75628;SDS011;64213;46.452;16.994;2023-02-13T10:20:38;12.57;;;3.78;;
75628;SDS011;64213;46.452;16.994;2023-02-13T10:23:58;11.93;;;3.90;;
75628;SDS011;64213;46.452;16.994;2023-02-13T10:30:55;14.45;;;4.62;;
75628;SDS011;64213;46.452;16.994;2023-02-13T10:34:01;13.05;;;4.50;;
75628;SDS011;64213;46.452;16.994;2023-02-13T10:37:10;11.43;;;3.08;;
75628;SDS011;64213;46.452;16.994;2023-02-13T10:40:18;8.73;;;2.63;;
75628;SDS011;64213;46.452;16.994;2023-02-13T10:43:21;13.25;;;3.47;;
75628;SDS011;64213;46.452;16.994;2023-02-13T10:50:25;10.85;;;3.78;;
75628;SDS011;64213;46.452;16.994;2023-02-13T11:00:34;9.93;;;2.90;;
75628;SDS011;64213;46.452;16.994;2023-02-13T11:03:38;10.02;;;3.50;;
75628;SDS011;64213;46.452;16.994;2023-02-13T11:10:22;8.75;;;2.62;;
75628;SDS011;64213;46.452;16.994;2023-02-13T11:13:27;10.67;;;3.40;;
75628;SDS011;64213;46.452;16.994;2023-02-13T11:16:37;8.93;;;3.03;;
75628;SDS011;64213;46.452;16.994;2023-02-13T11:19:57;9.70;;;3.12;;
75628;SDS011;64213;46.452;16.994;2023-02-13T11:26:23;8.65;;;2.47;;
75628;SDS011;64213;46.452;16.994;2023-02-13T11:29:33;10.77;;;2.87;;
75628;SDS011;64213;46.452;16.994;2023-02-13T11:32:40;9.77;;;3.12;;
75628;SDS011;64213;46.452;16.994;2023-02-13T11:35:43;9.70;;;3.00;;
75628;SDS011;64213;46.452;16.994;2023-02-13T11:38:56;10.30;;;3.03;;
75628;SDS011;64213;46.452;16.994;2023-02-13T11:42:26;9.63;;;2.90;;
75628;SDS011;64213;46.452;16.994;2023-02-13T11:45:33;8.20;;;2.03;;
75628;SDS011;64213;46.452;16.994;2023-02-13T11:48:36;10.88;;;2.70;;
75628;SDS011;64213;46.452;16.994;2023-02-13T11:51:40;9.13;;;2.65;;
75628;SDS011;64213;46.452;16.994;2023-02-13T11:54:45;12.50;;;3.17;;
75628;SDS011;64213;46.452;16.994;2023-02-13T11:58:00;9.57;;;3.10;;
75628;SDS011;64213;46.452;16.994;2023-02-13T12:04:22;8.70;;;2.72;;
75628;SDS011;64213;46.452;16.994;2023-02-13T12:07:25;10.32;;;3.17;;
75628;SDS011;64213;46.452;16.994;2023-02-13T12:10:30;7.87;;;2.17;;
75628;SDS011;64213;46.452;16.994;2023-02-13T12:13:38;6.45;;;1.70;;
75628;SDS011;64213;46.452;16.994;2023-02-13T12:16:42;10.13;;;3.03;;
75628;SDS011;64213;46.452;16.994;2023-02-13T12:19:48;12.15;;;3.78;;
75628;SDS011;64213;46.452;16.994;2023-02-13T12:22:57;10.57;;;3.80;;
75628;SDS011;64213;46.452;16.994;2023-02-13T12:26:32;9.38;;;3.15;;
75628;SDS011;64213;46.452;16.994;2023-02-13T13:10:37;11.32;;;3.15;;
75628;SDS011;64213;46.452;16.994;2023-02-13T13:13:56;10.55;;;4.00;;
75628;SDS011;64213;46.452;16.994;2023-02-13T13:17:22;11.65;;;3.80;;
75628;SDS011;64213;46.452;16.994;2023-02-13T13:21:03;11.20;;;3.23;;
75628;SDS011;64213;46.452;16.994;2023-02-13T13:27:56;8.23;;;2.60;;
75628;SDS011;64213;46.452;16.994;2023-02-13T13:31:03;8.93;;;2.75;;
75628;SDS011;64213;46.452;16.994;2023-02-13T13:34:16;12.80;;;3.75;;
75628;SDS011;64213;46.452;16.994;2023-02-13T13:37:44;10.30;;;2.67;;
75628;SDS011;64213;46.452;16.994;2023-02-13T13:40:54;8.47;;;2.83;;
75628;SDS011;64213;46.452;16.994;2023-02-13T13:44:18;9.50;;;3.08;;
75628;SDS011;64213;46.452;16.994;2023-02-13T13:47:25;12.02;;;3.87;;
75628;SDS011;64213;46.452;16.994;2023-02-13T13:50:34;9.95;;;3.65;;
75628;SDS011;64213;46.452;16.994;2023-02-13T14:03:22;11.65;;;3.45;;
75628;SDS011;64213;46.452;16.994;2023-02-13T14:09:46;11.77;;;3.70;;
75628;SDS011;64213;46.452;16.994;2023-02-13T14:12:58;10.67;;;3.70;;
75628;SDS011;64213;46.452;16.994;2023-02-13T14:16:04;9.90;;;2.85;;
75628;SDS011;64213;46.452;16.994;2023-02-13T14:19:32;10.98;;;3.87;;
75628;SDS011;64213;46.452;16.994;2023-02-13T14:22:34;13.23;;;3.97;;
75628;SDS011;64213;46.452;16.994;2023-02-13T14:25:40;10.85;;;3.60;;
75628;SDS011;64213;46.452;16.994;2023-02-13T14:31:58;10.13;;;3.08;;
75628;SDS011;64213;46.452;16.994;2023-02-13T14:35:16;14.90;;;3.92;;
75628;SDS011;64213;46.452;16.994;2023-02-13T14:38:24;11.57;;;3.83;;
75628;SDS011;64213;46.452;16.994;2023-02-13T14:44:57;11.93;;;4.10;;
75628;SDS011;64213;46.452;16.994;2023-02-13T14:48:05;11.70;;;3.97;;
75628;SDS011;64213;46.452;16.994;2023-02-13T14:51:19;13.35;;;3.85;;
75628;SDS011;64213;46.452;16.994;2023-02-13T14:57:43;12.80;;;4.43;;
75628;SDS011;64213;46.452;16.994;2023-02-13T15:00:51;10.53;;;2.50;;
75628;SDS011;64213;46.452;16.994;2023-02-13T15:07:12;10.13;;;3.72;;
75628;SDS011;64213;46.452;16.994;2023-02-13T15:13:47;9.33;;;3.10;;
75628;SDS011;64213;46.452;16.994;2023-02-13T15:16:52;12.20;;;2.90;;
75628;SDS011;64213;46.452;16.994;2023-02-13T15:20:23;10.70;;;3.40;;
75628;SDS011;64213;46.452;16.994;2023-02-13T15:23:33;9.95;;;3.15;;
75628;SDS011;64213;46.452;16.994;2023-02-13T15:26:36;10.20;;;3.15;;
75628;SDS011;64213;46.452;16.994;2023-02-13T15:29:51;11.17;;;3.57;;
75628;SDS011;64213;46.452;16.994;2023-02-13T15:33:03;13.00;;;3.70;;
75628;SDS011;64213;46.452;16.994;2023-02-13T15:36:32;14.15;;;4.30;;
75628;SDS011;64213;46.452;16.994;2023-02-13T15:39:37;16.98;;;4.55;;
75628;SDS011;64213;46.452;16.994;2023-02-13T15:42:40;15.57;;;4.85;;
75628;SDS011;64213;46.452;16.994;2023-02-13T15:45:43;12.00;;;4.23;;
75628;SDS011;64213;46.452;16.994;2023-02-13T15:48:46;9.37;;;3.50;;
75628;SDS011;64213;46.452;16.994;2023-02-13T15:51:50;10.07;;;3.42;;
75628;SDS011;64213;46.452;16.994;2023-02-13T15:55:04;11.95;;;3.15;;
75628;SDS011;64213;46.452;16.994;2023-02-13T15:58:10;10.75;;;3.05;;
75628;SDS011;64213;46.452;16.994;2023-02-13T16:01:16;10.43;;;3.27;;
75628;SDS011;64213;46.452;16.994;2023-02-13T16:04:25;14.43;;;3.93;;
75628;SDS011;64213;46.452;16.994;2023-02-13T16:07:29;11.43;;;3.20;;
75628;SDS011;64213;46.452;16.994;2023-02-13T16:10:33;12.85;;;4.22;;
75628;SDS011;64213;46.452;16.994;2023-02-13T16:13:38;11.93;;;3.78;;
75628;SDS011;64213;46.452;16.994;2023-02-13T16:16:45;10.30;;;3.17;;
75628;SDS011;64213;46.452;16.994;2023-02-13T16:26:16;35.95;;;9.98;;
75628;SDS011;64213;46.452;16.994;2023-02-13T16:29:22;14.32;;;5.03;;
75628;SDS011;64213;46.452;16.994;2023-02-13T16:32:31;12.33;;;4.30;;
75628;SDS011;64213;46.452;16.994;2023-02-13T16:35:37;10.87;;;3.97;;
75628;SDS011;64213;46.452;16.994;2023-02-13T16:38:43;12.02;;;3.97;;
75628;SDS011;64213;46.452;16.994;2023-02-13T16:41:46;7.25;;;2.15;;
75628;SDS011;64213;46.452;16.994;2023-02-13T16:44:49;12.45;;;4.55;;
75628;SDS011;64213;46.452;16.994;2023-02-13T16:47:58;13.40;;;5.37;;
75628;SDS011;64213;46.452;16.994;2023-02-13T16:51:05;21.70;;;7.80;;
75628;SDS011;64213;46.452;16.994;2023-02-13T17:00:20;18.73;;;6.78;;
75628;SDS011;64213;46.452;16.994;2023-02-13T17:03:31;25.10;;;9.30;;
75628;SDS011;64213;46.452;16.994;2023-02-13T17:06:34;23.23;;;8.80;;
75628;SDS011;64213;46.452;16.994;2023-02-13T17:09:36;24.70;;;8.93;;
75628;SDS011;64213;46.452;16.994;2023-02-13T17:12:40;29.67;;;10.13;;
75628;SDS011;64213;46.452;16.994;2023-02-13T17:15:45;24.30;;;8.98;;
75628;SDS011;64213;46.452;16.994;2023-02-13T17:18:51;22.33;;;7.87;;
75628;SDS011;64213;46.452;16.994;2023-02-13T17:21:54;18.43;;;7.57;;
75628;SDS011;64213;46.452;16.994;2023-02-13T17:25:01;22.52;;;9.27;;
75628;SDS011;64213;46.452;16.994;2023-02-13T17:28:15;21.30;;;8.10;;
75628;SDS011;64213;46.452;16.994;2023-02-13T17:31:21;17.17;;;6.87;;
75628;SDS011;64213;46.452;16.994;2023-02-13T17:34:24;22.13;;;8.03;;
75628;SDS011;64213;46.452;16.994;2023-02-13T17:37:27;22.07;;;9.30;;
75628;SDS011;64213;46.452;16.994;2023-02-13T17:40:31;23.80;;;9.60;;
75628;SDS011;64213;46.452;16.994;2023-02-13T17:43:35;25.23;;;10.73;;
75628;SDS011;64213;46.452;16.994;2023-02-13T17:46:39;28.17;;;11.70;;
75628;SDS011;64213;46.452;16.994;2023-02-13T17:49:43;21.77;;;10.33;;
75628;SDS011;64213;46.452;16.994;2023-02-13T17:52:47;23.07;;;10.13;;
75628;SDS011;64213;46.452;16.994;2023-02-13T17:55:52;26.73;;;11.85;;
75628;SDS011;64213;46.452;16.994;2023-02-13T17:58:56;29.17;;;11.57;;
75628;SDS011;64213;46.452;16.994;2023-02-13T18:02:00;25.77;;;11.55;;
75628;SDS011;64213;46.452;16.994;2023-02-13T18:05:06;34.13;;;14.70;;
75628;SDS011;64213;46.452;16.994;2023-02-13T18:08:11;36.57;;;14.90;;
75628;SDS011;64213;46.452;16.994;2023-02-13T18:11:15;37.85;;;14.85;;
75628;SDS011;64213;46.452;16.994;2023-02-13T18:14:18;38.30;;;16.10;;
75628;SDS011;64213;46.452;16.994;2023-02-13T18:17:22;34.53;;;14.43;;
75628;SDS011;64213;46.452;16.994;2023-02-13T18:20:25;35.63;;;15.03;;
75628;SDS011;64213;46.452;16.994;2023-02-13T18:23:30;40.93;;;16.07;;
75628;SDS011;64213;46.452;16.994;2023-02-13T18:26:45;31.73;;;12.95;;
75628;SDS011;64213;46.452;16.994;2023-02-13T18:29:53;38.75;;;16.62;;
75628;SDS011;64213;46.452;16.994;2023-02-13T18:32:59;35.92;;;14.90;;
75628;SDS011;64213;46.452;16.994;2023-02-13T18:36:07;37.80;;;15.30;;
75628;SDS011;64213;46.452;16.994;2023-02-13T18:39:12;39.43;;;16.60;;
75628;SDS011;64213;46.452;16.994;2023-02-13T18:42:18;48.08;;;17.30;;
75628;SDS011;64213;46.452;16.994;2023-02-13T18:45:23;35.08;;;16.83;;
75628;SDS011;64213;46.452;16.994;2023-02-13T18:48:29;36.15;;;15.80;;
75628;SDS011;64213;46.452;16.994;2023-02-13T18:51:34;38.13;;;16.40;;
75628;SDS011;64213;46.452;16.994;2023-02-13T18:54:40;43.93;;;19.10;;
75628;SDS011;64213;46.452;16.994;2023-02-13T18:57:45;42.38;;;17.95;;
75628;SDS011;64213;46.452;16.994;2023-02-13T19:00:51;45.20;;;18.37;;
75628;SDS011;64213;46.452;16.994;2023-02-13T19:03:56;38.45;;;16.80;;
75628;SDS011;64213;46.452;16.994;2023-02-13T19:07:02;40.77;;;17.27;;
75628;SDS011;64213;46.452;16.994;2023-02-13T19:10:10;42.40;;;18.50;;
75628;SDS011;64213;46.452;16.994;2023-02-13T19:13:14;44.45;;;19.23;;
75628;SDS011;64213;46.452;16.994;2023-02-13T19:16:18;54.00;;;20.90;;
75628;SDS011;64213;46.452;16.994;2023-02-13T19:19:27;48.03;;;19.25;;
75628;SDS011;64213;46.452;16.994;2023-02-13T19:22:31;44.03;;;20.90;;
75628;SDS011;64213;46.452;16.994;2023-02-13T19:25:36;48.00;;;20.87;;
75628;SDS011;64213;46.452;16.994;2023-02-13T19:28:44;44.05;;;19.12;;
75628;SDS011;64213;46.452;16.994;2023-02-13T19:31:48;50.92;;;20.70;;
75628;SDS011;64213;46.452;16.994;2023-02-13T19:34:52;63.05;;;24.80;;
75628;SDS011;64213;46.452;16.994;2023-02-13T19:37:56;73.53;;;29.77;;
75628;SDS011;64213;46.452;16.994;2023-02-13T19:41:05;68.10;;;29.03;;
75628;SDS011;64213;46.452;16.994;2023-02-13T19:44:10;69.47;;;28.40;;
75628;SDS011;64213;46.452;16.994;2023-02-13T19:47:17;61.40;;;25.77;;
75628;SDS011;64213;46.452;16.994;2023-02-13T19:50:22;62.70;;;25.70;;
75628;SDS011;64213;46.452;16.994;2023-02-13T19:53:26;71.23;;;29.67;;
75628;SDS011;64213;46.452;16.994;2023-02-13T19:56:30;81.13;;;33.93;;
75628;SDS011;64213;46.452;16.994;2023-02-13T19:59:37;80.07;;;32.15;;
75628;SDS011;64213;46.452;16.994;2023-02-13T20:02:41;94.97;;;34.67;;
75628;SDS011;64213;46.452;16.994;2023-02-13T20:05:47;85.40;;;31.67;;
75628;SDS011;64213;46.452;16.994;2023-02-13T20:08:57;80.10;;;32.60;;
75628;SDS011;64213;46.452;16.994;2023-02-13T20:12:04;59.30;;;25.57;;
75628;SDS011;64213;46.452;16.994;2023-02-13T20:15:08;62.70;;;26.40;;
75628;SDS011;64213;46.452;16.994;2023-02-13T20:18:16;53.95;;;24.87;;
75628;SDS011;64213;46.452;16.994;2023-02-13T20:21:21;51.95;;;23.42;;
75628;SDS011;64213;46.452;16.994;2023-02-13T20:24:26;55.53;;;23.53;;
75628;SDS011;64213;46.452;16.994;2023-02-13T20:27:30;60.07;;;24.43;;
75628;SDS011;64213;46.452;16.994;2023-02-13T20:30:34;55.30;;;24.98;;
75628;SDS011;64213;46.452;16.994;2023-02-13T20:33:40;55.25;;;22.65;;
75628;SDS011;64213;46.452;16.994;2023-02-13T20:36:45;67.87;;;26.67;;
75628;SDS011;64213;46.452;16.994;2023-02-13T20:39:49;72.10;;;27.07;;
75628;SDS011;64213;46.452;16.994;2023-02-13T20:42:54;66.40;;;25.70;;
75628;SDS011;64213;46.452;16.994;2023-02-13T20:45:58;62.03;;;21.60;;
75628;SDS011;64213;46.452;16.994;2023-02-13T20:49:02;48.53;;;18.02;;
75628;SDS011;64213;46.452;16.994;2023-02-13T20:52:07;37.05;;;15.90;;
75628;SDS011;64213;46.452;16.994;2023-02-13T20:55:11;46.20;;;15.60;;
75628;SDS011;64213;46.452;16.994;2023-02-13T20:58:15;30.93;;;11.80;;
75628;SDS011;64213;46.452;16.994;2023-02-13T21:01:21;30.15;;;13.77;;